Thunder radar more information blitzortung!


Radar de pluja more information rain snow radar


Visita la nostra xarxa de llocs de meteo:

Template documentation
and downloads

And another site



No particular awareness of the weather is required.    There are no Weather-warnings

Pagina Historial Weather Underground text

Diari Resum Juny 24, 2017 Unitats:  Imperial    Mètric   Tant
« Previous Dia
SegĂźent Dia »
Diari Setmana Mensual Anual Personalitzada
  Maxima: Minima: Media:
Temperatura: TemperatureC °F 19.9 °F 27.7 °F
Punt de rosada: DewpointC °F 14.4 °F 17.4 °F
Humitat: Humidity % 39 % 54 %
Wind Speed: WindSpeedKMH mph 0.0 mph 7.9 mph
RĂ fegues de vent: WindSpeedGustKMH mph - -
Vent:- - SSW
Pression baro: PressurehPa in 1012.8 in -
Precipitacions: 0.0 in    
Historical Graphs
 
 
Dades de taula per Juny 24, 2017
Temps Temperatura Punt de rosada Pression baro Vent Wind Speed RĂ fegues de vent Humitat Rainfall Rate (Hourly)
TemperatureC °F DewpointC °F PressurehPa in Calm     Humidity % HourlyPrecipMM in
00:02 24.0 °F 14.4 °F 1017.8 in WSW 3.7 mph 4.2 mph 55 % 0.0 in
00:05 21.1 °F 15.8 °F 1016.8 in Calm     72 % 0.0 in
00:07 24.0 °F 14.4 °F 1017.8 in WSW 3.7 mph 3.7 mph 55 % 0.0 in
00:12 23.9 °F 14.6 °F 1017.8 in SW 5.0 mph 5.0 mph 56 % 0.0 in
00:15 20.8 °F 15.3 °F 1016.8 in Calm   1.6 mph 71 % 0.0 in
00:17 23.8 °F 14.8 °F 1017.8 in SW 5.6 mph 5.6 mph 57 % 0.0 in
00:25 20.7 °F 15.3 °F 1015.8 in Calm   1.6 mph 71 % 0.0 in
00:35 20.5 °F 15.3 °F 1016.8 in Calm   1.6 mph 72 % 0.0 in
00:45 20.5 °F 15.3 °F 1016.8 in Calm   1.6 mph 72 % 0.0 in
00:55 20.5 °F 15.3 °F 1016.8 in NE 1.6 mph 3.2 mph 72 % 0.0 in
01:05 20.4 °F 15.4 °F 1016.8 in Calm   1.6 mph 73 % 0.0 in
01:15 20.2 °F 15.2 °F 1016.8 in Calm     73 % 0.0 in
01:25 20.1 °F 15.3 °F 1016.8 in Calm     74 % 0.0 in
01:35 20.0 °F 15.2 °F 1016.8 in Calm     74 % 0.0 in
01:45 19.9 °F 15.3 °F 1016.8 in Calm   1.6 mph 75 % 0.0 in
01:55 20.0 °F 15.4 °F 1016.8 in Calm     75 % 0.0 in
02:05 20.4 °F 15.8 °F 1016.8 in SSW 4.8 mph 4.8 mph 75 % 0.0 in
02:15 20.5 °F 15.7 °F 1016.8 in East 1.6 mph 1.6 mph 74 % 0.0 in
02:25 20.8 °F 16.0 °F 1017.8 in East 3.2 mph 3.2 mph 74 % 0.0 in
02:35 20.9 °F 15.9 °F 1017.8 in East 1.6 mph 3.2 mph 73 % 0.0 in
02:45 21.3 °F 16.3 °F 1017.8 in Calm   3.2 mph 73 % 0.0 in
02:55 20.9 °F 15.7 °F 1018.8 in WSW 3.2 mph 3.2 mph 72 % 0.0 in
03:05 21.6 °F 16.3 °F 1017.8 in SW 1.6 mph 1.6 mph 72 % 0.0 in
03:15 22.4 °F 16.7 °F 1017.8 in Calm   1.6 mph 70 % 0.0 in
03:25 22.3 °F 16.3 °F 1017.8 in Calm   3.2 mph 69 % 0.0 in
03:35 23.2 °F 16.9 °F 1017.8 in WSW 1.6 mph 1.6 mph 68 % 0.0 in
03:45 23.4 °F 16.7 °F 1017.8 in West 3.2 mph 3.2 mph 66 % 0.0 in
03:55 23.6 °F 16.9 °F 1017.8 in West 1.6 mph 1.6 mph 66 % 0.0 in
04:05 24.5 °F 17.0 °F 1018.8 in NW 3.2 mph 4.8 mph 63 % 0.0 in
04:15 24.5 °F 17.0 °F 1018.8 in NE 3.2 mph 3.2 mph 63 % 0.0 in
04:25 24.8 °F 16.8 °F 1017.8 in NE 1.6 mph 6.4 mph 61 % 0.0 in
04:35 25.1 °F 16.3 °F 1017.8 in ENE 1.6 mph 6.4 mph 58 % 0.0 in
04:45 25.7 °F 16.8 °F 1017.8 in ESE 1.6 mph 4.8 mph 58 % 0.0 in
04:55 26.0 °F 16.3 °F 1017.8 in SE 1.6 mph 6.4 mph 55 % 0.0 in
10:06 26.7 °F 16.6 °F 1017.8 in NNE 1.9 mph 1.9 mph 54 % 0.0 in
10:11 27.2 °F 16.8 °F 1017.8 in NE 3.9 mph 3.9 mph 53 % 0.0 in
10:16 26.9 °F 16.5 °F 1017.8 in ENE 5.6 mph 5.6 mph 53 % 0.0 in
10:21 27.1 °F 16.1 °F 1017.8 in ENE 5.6 mph 5.6 mph 51 % 0.0 in
10:26 27.5 °F 16.4 °F 1017.8 in WNW 3.7 mph 3.7 mph 51 % 0.0 in
10:31 27.6 °F 16.6 °F 1017.8 in ESE 3.7 mph 3.7 mph 51 % 0.0 in
10:36 27.4 °F 15.7 °F 1017.8 in East 3.7 mph 3.7 mph 49 % 0.0 in
10:41 27.7 °F 16.3 °F 1017.8 in East 5.6 mph 5.6 mph 50 % 0.0 in
10:46 27.6 °F 15.9 °F 1016.8 in NE 5.6 mph 5.6 mph 49 % 0.0 in
10:51 27.9 °F 16.5 °F 1016.8 in WSW 3.7 mph 3.7 mph 50 % 0.0 in
10:56 28.2 °F 16.4 °F 1016.8 in ESE 11.1 mph 11.1 mph 49 % 0.0 in
11:01 27.9 °F 16.2 °F 1016.8 in ENE 8.7 mph 8.7 mph 49 % 0.0 in
11:06 27.8 °F 15.8 °F 1016.8 in ESE 4.2 mph 4.2 mph 48 % 0.0 in
11:11 28.5 °F 16.4 °F 1016.8 in SSE 5.6 mph 5.6 mph 48 % 0.0 in
11:16 28.9 °F 16.4 °F 1016.8 in ENE 7.4 mph 7.4 mph 47 % 0.0 in
11:21 28.5 °F 16.1 °F 1016.8 in SSE 11.1 mph 11.1 mph 47 % 0.0 in
11:26 28.5 °F 16.1 °F 1016.8 in WSW 9.3 mph 9.3 mph 47 % 0.0 in
11:31 28.6 °F 16.2 °F 1016.8 in NNE 7.4 mph 7.4 mph 47 % 0.0 in
11:36 28.9 °F 16.4 °F 1016.8 in SSE 9.3 mph 9.3 mph 47 % 0.0 in
11:41 28.9 °F 16.4 °F 1016.8 in East 5.6 mph 5.6 mph 47 % 0.0 in
11:46 29.0 °F 16.6 °F 1016.8 in NNW 7.4 mph 7.4 mph 47 % 0.0 in
11:51 29.0 °F 16.9 °F 1016.8 in NNE 9.5 mph 9.5 mph 48 % 0.0 in
11:56 29.1 °F 17.3 °F 1016.8 in SSW 6.4 mph 6.4 mph 49 % 0.0 in
12:01 29.4 °F 17.6 °F 1016.8 in East 13.0 mph 13.0 mph 49 % 0.0 in
12:06 29.3 °F 17.8 °F 1016.8 in SE 4.2 mph 4.2 mph 50 % 0.0 in
12:11 28.8 °F 17.9 °F 1016.8 in ESE 14.8 mph 14.8 mph 52 % 0.0 in
12:16 28.9 °F 18.3 °F 1016.8 in South 16.7 mph 16.7 mph 53 % 0.0 in
12:21 28.9 °F 18.7 °F 1016.8 in ESE 15.8 mph 15.8 mph 54 % 0.0 in
12:26 29.0 °F 18.4 °F 1016.8 in ESE 7.4 mph 7.4 mph 53 % 0.0 in
12:31 29.1 °F 18.6 °F 1015.8 in ESE 13.0 mph 13.0 mph 53 % 0.0 in
12:36 29.0 °F 18.8 °F 1015.8 in East 9.3 mph 9.3 mph 54 % 0.0 in
12:41 28.8 °F 19.2 °F 1015.8 in ENE 6.4 mph 6.4 mph 56 % 0.0 in
12:46 28.6 °F 18.9 °F 1016.8 in ENE 13.0 mph 13.0 mph 56 % 0.0 in
12:51 28.6 °F 18.9 °F 1016.8 in ESE 11.1 mph 11.1 mph 56 % 0.0 in
12:56 28.8 °F 19.2 °F 1016.8 in ESE 11.1 mph 11.1 mph 56 % 0.0 in
13:01 28.8 °F 19.2 °F 1015.8 in North 5.6 mph 5.6 mph 56 % 0.0 in
13:06 29.1 °F 19.1 °F 1015.8 in East 13.0 mph 13.0 mph 55 % 0.0 in
13:11 29.4 °F 19.1 °F 1015.8 in ENE 9.3 mph 9.3 mph 54 % 0.0 in
13:16 29.7 °F 19.4 °F 1015.8 in ESE 11.1 mph 11.1 mph 54 % 0.0 in
13:21 30.7 °F 19.7 °F 1015.8 in ESE 11.1 mph 11.1 mph 52 % 0.0 in
13:26 31.4 °F 19.4 °F 1015.8 in SW 9.3 mph 9.3 mph 49 % 0.0 in
13:31 31.5 °F 19.5 °F 1015.8 in SW 11.1 mph 11.1 mph 49 % 0.0 in
13:36 31.4 °F 19.1 °F 1015.8 in SW 11.9 mph 11.9 mph 48 % 0.0 in
13:41 31.8 °F 19.1 °F 1015.8 in SW 10.8 mph 10.8 mph 47 % 0.0 in
13:46 32.0 °F 18.9 °F 1015.8 in SW 11.1 mph 11.1 mph 46 % 0.0 in
13:51 31.1 °F 17.8 °F 1015.8 in SW 14.8 mph 14.8 mph 45 % 0.0 in
13:56 31.6 °F 18.2 °F 1015.8 in SW 9.3 mph 9.3 mph 45 % 0.0 in
14:01 31.4 °F 18.1 °F 1015.8 in WSW 9.3 mph 9.3 mph 45 % 0.0 in
14:06 31.9 °F 18.5 °F 1015.8 in SSW 9.3 mph 9.3 mph 45 % 0.0 in
14:11 32.2 °F 18.4 °F 1015.8 in South 7.4 mph 7.4 mph 44 % 0.0 in
14:16 32.2 °F 18.4 °F 1015.8 in SSW 11.1 mph 11.1 mph 44 % 0.0 in
14:21 32.4 °F 18.6 °F 1015.8 in West 9.3 mph 9.3 mph 44 % 0.0 in
14:26 32.0 °F 17.8 °F 1015.8 in West 14.8 mph 14.8 mph 43 % 0.0 in
14:31 32.3 °F 18.1 °F 1015.8 in SW 12.2 mph 12.2 mph 43 % 0.0 in
14:36 32.0 °F 17.8 °F 1015.8 in South 11.1 mph 11.1 mph 43 % 0.0 in
14:41 32.3 °F 18.1 °F 1015.8 in SW 9.3 mph 9.3 mph 43 % 0.0 in
14:46 32.9 °F 18.7 °F 1014.8 in SW 12.6 mph 12.6 mph 43 % 0.0 in
14:51 32.3 °F 18.1 °F 1014.8 in SW 12.6 mph 12.6 mph 43 % 0.0 in
14:56 32.6 °F 18.4 °F 1014.8 in West 7.4 mph 7.4 mph 43 % 0.0 in
15:01 32.8 °F 18.6 °F 1014.8 in SSW 11.1 mph 11.1 mph 43 % 0.0 in
15:06 32.2 °F 18.1 °F 1014.8 in West 13.0 mph 13.0 mph 43 % 0.0 in
15:11 32.3 °F 17.8 °F 1014.8 in SSE 5.6 mph 5.6 mph 42 % 0.0 in
15:16 33.1 °F 18.4 °F 1014.8 in South 7.4 mph 7.4 mph 42 % 0.0 in
15:21 33.5 °F 18.4 °F 1014.8 in SE 3.7 mph 3.7 mph 41 % 0.0 in
15:26 33.7 °F 18.6 °F 1014.8 in SW 9.7 mph 9.7 mph 41 % 0.0 in
15:31 33.4 °F 17.9 °F 1013.8 in West 13.0 mph 13.0 mph 40 % 0.0 in
15:36 33.8 °F 18.3 °F 1013.8 in South 9.3 mph 9.3 mph 40 % 0.0 in
15:41 34.1 °F 18.6 °F 1013.8 in SSW 7.4 mph 7.4 mph 40 % 0.0 in
15:46 33.7 °F 18.2 °F 1013.8 in South 9.3 mph 9.3 mph 40 % 0.0 in
15:51 33.4 °F 17.6 °F 1013.8 in South 7.4 mph 7.4 mph 39 % 0.0 in
15:56 33.8 °F 18.3 °F 1013.8 in WSW 7.4 mph 7.4 mph 40 % 0.0 in
16:01 34.1 °F 18.6 °F 1013.8 in WSW 9.5 mph 9.5 mph 40 % 0.0 in
16:06 33.2 °F 17.8 °F 1013.8 in West 15.6 mph 15.6 mph 40 % 0.0 in
16:11 32.9 °F 17.9 °F 1013.8 in SW 9.3 mph 9.3 mph 41 % 0.0 in
16:16 33.3 °F 17.9 °F 1013.8 in South 10.0 mph 10.0 mph 40 % 0.0 in
16:17 33.5 °F 18.1 °F 1013.8 in South 10.0 mph 10.0 mph 40 % 0.0 in
16:22 33.3 °F 18.3 °F 1013.8 in SW 18.5 mph 18.5 mph 41 % 0.0 in
16:27 33.1 °F 18.4 °F 1013.8 in SSW 13.0 mph 13.0 mph 42 % 0.0 in
16:32 32.7 °F 18.5 °F 1013.8 in SW 11.1 mph 11.1 mph 43 % 0.0 in
16:37 32.0 °F 17.8 °F 1013.8 in WSW 13.0 mph 13.0 mph 43 % 0.0 in
16:40 26.4 °F 17.4 °F 1013.8 in SW 3.2 mph 8.0 mph 58 % 0.0 in
16:42 32.2 °F 18.4 °F 1013.8 in WSW 13.0 mph 13.0 mph 44 % 0.0 in
16:47 31.9 °F 18.1 °F 1012.8 in West 9.3 mph 9.3 mph 44 % 0.0 in
16:50 26.0 °F 17.4 °F 1013.8 in SW 4.8 mph 6.4 mph 59 % 0.0 in
16:52 32.0 °F 18.6 °F 1012.8 in SW 14.8 mph 14.8 mph 45 % 0.0 in
16:57 31.6 °F 18.2 °F 1012.8 in South 16.9 mph 16.9 mph 45 % 0.0 in
17:02 31.7 °F 18.7 °F 1012.8 in West 18.5 mph 18.5 mph 46 % 0.0 in
17:07 31.3 °F 18.3 °F 1012.8 in West 14.8 mph 14.8 mph 46 % 0.0 in
17:12 30.7 °F 18.1 °F 1012.8 in SW 16.7 mph 16.7 mph 47 % 0.0 in
17:17 30.9 °F 18.6 °F 1013.8 in SW 10.0 mph 10.0 mph 48 % 0.0 in
17:22 30.7 °F 18.4 °F 1013.8 in SW 13.0 mph 13.0 mph 48 % 0.0 in
17:27 30.2 °F 18.0 °F 1013.8 in SSW 20.4 mph 20.4 mph 48 % 0.0 in
17:32 30.2 °F 18.0 °F 1013.8 in South 18.5 mph 18.5 mph 48 % 0.0 in
17:37 30.0 °F 18.1 °F 1013.8 in West 13.0 mph 13.0 mph 49 % 0.0 in
17:42 30.0 °F 17.8 °F 1013.8 in SW 16.7 mph 16.7 mph 48 % 0.0 in
17:47 30.1 °F 17.9 °F 1013.8 in SW 13.0 mph 13.0 mph 48 % 0.0 in
17:52 29.9 °F 17.7 °F 1013.8 in SSW 14.8 mph 14.8 mph 48 % 0.0 in
17:57 29.6 °F 17.8 °F 1013.8 in SW 10.0 mph 10.0 mph 49 % 0.0 in
18:02 29.6 °F 17.8 °F 1013.8 in WSW 9.3 mph 9.3 mph 49 % 0.0 in
18:07 29.4 °F 17.6 °F 1013.8 in SW 18.5 mph 18.5 mph 49 % 0.0 in
18:12 29.2 °F 17.7 °F 1013.8 in South 16.7 mph 16.7 mph 50 % 0.0 in
18:17 29.2 °F 17.7 °F 1013.8 in SSW 13.0 mph 13.0 mph 50 % 0.0 in
18:22 29.3 °F 18.1 °F 1013.8 in SW 7.4 mph 7.4 mph 51 % 0.0 in
18:27 29.3 °F 18.1 °F 1013.8 in SW 9.3 mph 9.3 mph 51 % 0.0 in
18:32 29.3 °F 18.1 °F 1013.8 in SSE 9.3 mph 9.3 mph 51 % 0.0 in
18:37 29.1 °F 18.2 °F 1013.8 in WSW 11.1 mph 11.1 mph 52 % 0.0 in
18:42 28.8 °F 18.3 °F 1013.8 in South 14.8 mph 14.8 mph 53 % 0.0 in
18:47 28.6 °F 18.1 °F 1013.8 in SW 11.1 mph 11.1 mph 53 % 0.0 in
18:52 28.5 °F 18.0 °F 1013.8 in SW 20.4 mph 20.4 mph 53 % 0.0 in
18:57 28.4 °F 18.2 °F 1013.8 in South 7.4 mph 7.4 mph 54 % 0.0 in
19:02 28.8 °F 18.6 °F 1013.8 in SW 7.4 mph 7.4 mph 54 % 0.0 in
19:07 29.1 °F 18.6 °F 1013.8 in SW 7.4 mph 7.4 mph 53 % 0.0 in
19:12 28.9 °F 18.7 °F 1013.8 in West 11.1 mph 11.1 mph 54 % 0.0 in
19:17 28.9 °F 18.7 °F 1013.8 in SSW 16.7 mph 16.7 mph 54 % 0.0 in
19:22 28.9 °F 18.7 °F 1013.8 in SSW 11.1 mph 11.1 mph 54 % 0.0 in
19:27 29.0 °F 18.4 °F 1013.8 in SSW 13.0 mph 13.0 mph 53 % 0.0 in
19:32 29.0 °F 18.8 °F 1013.8 in SW 10.0 mph 10.0 mph 54 % 0.0 in
19:37 28.6 °F 18.7 °F 1013.8 in SSW 11.1 mph 11.1 mph 55 % 0.0 in
19:42 28.7 °F 18.8 °F 1013.8 in SW 8.7 mph 8.7 mph 55 % 0.0 in
19:48 28.6 °F 18.4 °F 1013.8 in SW 10.0 mph 10.0 mph 54 % 0.0 in
19:53 28.5 °F 18.3 °F 1013.8 in SW 8.7 mph 8.7 mph 54 % 0.0 in
19:58 28.4 °F 18.5 °F 1012.8 in WSW 11.1 mph 11.1 mph 55 % 0.0 in
20:03 28.1 °F 18.2 °F 1012.8 in SW 9.3 mph 9.3 mph 55 % 0.0 in
20:08 28.1 °F 18.5 °F 1012.8 in SW 7.4 mph 7.4 mph 56 % 0.0 in
20:13 28.1 °F 18.2 °F 1012.8 in SSW 9.3 mph 9.3 mph 55 % 0.0 in
20:18 28.0 °F 18.1 °F 1013.8 in WSW 9.3 mph 9.3 mph 55 % 0.0 in
20:23 27.8 °F 18.2 °F 1013.8 in WNW 9.3 mph 9.3 mph 56 % 0.0 in
20:28 27.7 °F 18.1 °F 1012.8 in West 9.0 mph 9.0 mph 56 % 0.0 in
20:33 27.6 °F 18.1 °F 1012.8 in WSW 9.3 mph 9.3 mph 56 % 0.0 in
20:38 27.5 °F 17.9 °F 1012.8 in SW 7.4 mph 7.4 mph 56 % 0.0 in
20:43 27.5 °F 17.7 °F 1012.8 in SW 7.4 mph 7.4 mph 55 % 0.0 in
20:48 27.5 °F 17.7 °F 1012.8 in SW 5.6 mph 5.6 mph 55 % 0.0 in
20:53 27.4 °F 17.6 °F 1012.8 in SSW 4.2 mph 4.2 mph 55 % 0.0 in
20:58 27.3 °F 17.4 °F 1012.8 in SSW 3.7 mph 3.7 mph 55 % 0.0 in
21:03 27.2 °F 17.4 °F 1012.8 in SW 5.6 mph 5.6 mph 55 % 0.0 in
21:08 27.1 °F 17.3 °F 1012.8 in SW 5.8 mph 5.8 mph 55 % 0.0 in
21:13 27.0 °F 17.2 °F 1012.8 in SW 7.4 mph 7.4 mph 55 % 0.0 in
21:18 26.9 °F 17.4 °F 1012.8 in SW 9.3 mph 9.3 mph 56 % 0.0 in
22:00 25.6 °F 17.5 °F 1013.8 in SW 5.6 mph 5.6 mph 61 % 0.0 in
22:05 25.3 °F 17.2 °F 1013.8 in SW 5.6 mph 5.6 mph 61 % 0.0 in
22:10 25.1 °F 17.3 °F 1013.8 in WSW 7.4 mph 7.4 mph 62 % 0.0 in
22:15 25.0 °F 17.2 °F 1012.8 in WSW 7.4 mph 7.4 mph 62 % 0.0 in
22:20 24.8 °F 17.3 °F 1012.8 in WSW 7.4 mph 7.4 mph 63 % 0.0 in
22:25 24.7 °F 17.4 °F 1012.8 in WSW 10.3 mph 10.3 mph 64 % 0.0 in
22:30 24.6 °F 17.3 °F 1013.8 in SW 9.3 mph 9.3 mph 64 % 0.0 in
22:35 24.4 °F 17.4 °F 1013.8 in SW 4.8 mph 11.3 mph 65 % 0.0 in
22:40 24.3 °F 17.3 °F 1013.8 in SW 4.8 mph 11.3 mph 65 % 0.0 in
22:45 24.2 °F 17.4 °F 1013.8 in SW 4.8 mph 9.7 mph 66 % 0.0 in
22:50 24.1 °F 17.3 °F 1013.8 in SW 3.2 mph 9.7 mph 66 % 0.0 in
22:55 24.0 °F 17.5 °F 1013.8 in SW 3.2 mph 9.7 mph 67 % 0.0 in
23:00 24.0 °F 17.5 °F 1014.8 in SW 3.2 mph 8.0 mph 67 % 0.0 in
23:05 23.9 °F 17.6 °F 1014.8 in SW 3.2 mph 8.0 mph 68 % 0.0 in
23:10 23.8 °F 17.6 °F 1014.8 in SW 3.2 mph 4.8 mph 68 % 0.0 in
23:15 23.7 °F 17.7 °F 1014.8 in SW 9.3 mph 9.3 mph 69 % 0.0 in
23:20 23.7 °F 17.7 °F 1014.8 in SW 3.7 mph 3.7 mph 69 % 0.0 in
23:22 23.6 °F 17.6 °F 1014.8 in SW 3.7 mph 3.7 mph 69 % 0.0 in
23:27 23.6 °F 17.6 °F 1014.8 in WSW 5.6 mph 5.6 mph 69 % 0.0 in
23:32 23.5 °F 17.5 °F 1014.8 in SW 5.6 mph 5.6 mph 69 % 0.0 in
23:37 23.5 °F 17.7 °F 1014.8 in SW 3.7 mph 3.7 mph 70 % 0.0 in
23:42 23.4 °F 17.6 °F 1014.8 in WSW 3.7 mph 3.7 mph 70 % 0.0 in
23:47 23.4 °F 17.6 °F 1014.8 in SW 1.9 mph   70 % 0.0 in
23:52 23.4 °F 17.6 °F 1014.8 in SW 3.7 mph 3.7 mph 70 % 0.0 in
23:57 23.3 °F 17.7 °F 1014.8 in WSW 2.6 mph   71 % 0.0 in
Meteo Sesrovires
Elogis d' Weather Underground - 3.5 mb

Guio original per  Jim McMurry - jmcmurry@mwt.net Adaptat per a la plantilla per  Wim van der Kuil - Leuven-Template.eu

Trobareu la nostra informacio del temps tambe a:

Weather Underground

AWEKAS